Check out our new PWSWeather beta!
PWSweather.com
Personal Weather Stations
Station Observations
LANJARON
Lanjaron, GranadaES 18420

LanjaronGranadaES 18420

Lat: 36.919, Lon: -3.469

Elevation: 2130

Station Type: Weatherflow Sky/Air

https://www.spanishhighs.co.uk/meteotemplate/

Latest ConditionsUpdated 1:35:00 PM GMT+01:01 Thursday, Feb 27, 2020
Currently Today's Max Today's Min Today's Average
Temperature 63.9°F17.7°C 64.0°F17.8°C 43.3°F6.3°C 49.0°F9.4°C
Dew Point 36.4°F2.4°C 39.2°F4.0°C 32.3°F0.2°C 34.4°F1.3°C
Winds 4.4 mph SW7.1 kmh SW 5.1 mph -8.2 kmh - - 0.9 mph 1.4 kmh
Wind Gusts 20.0 mph32.2 kmh 20.0 mph32.2 kmh - -
Humidity 36% 65% 36% 58%
Pressure 30.39 in1029.1 mb 30.52 in1033.5 mb 30.39 in1029.1 mb -
Hour Temp Dew Point Humidity Winds Wind Gusts Pressure Precip Precip Rate Daily Precip Total
01:35 PM 63.9°F17.7°C 36.4°F2.4°C 36% 4.4 mph SW7.1 kmh SW 20.0 mph32.2 kmh 30.39 in1029.1 mb 0.00 in0.0 mm 0.00 in0.0 mm 0.00 in0.0 mm
01:30 PM 63.8°F17.7°C 36.6°F2.6°C 36% 4.5 mph WSW7.2 kmh WSW 10.6 mph17.1 kmh 30.39 in1029.1 mb 0.00 in0.0 mm 0.00 in0.0 mm 0.00 in0.0 mm
01:25 PM 63.7°F17.6°C 36.5°F2.5°C 36% 4.5 mph SW7.2 kmh SW 10.8 mph17.4 kmh 30.39 in1029.1 mb 0.00 in0.0 mm 0.00 in0.0 mm 0.00 in0.0 mm
01:20 PM 63.8°F17.7°C 36.4°F2.4°C 36% 4.3 mph SW6.9 kmh SW 12.4 mph20.0 kmh 30.39 in1029.1 mb 0.00 in0.0 mm 0.00 in0.0 mm 0.00 in0.0 mm
01:15 PM 64.0°F17.8°C 37.3°F2.9°C 37% 4.1 mph WSW6.6 kmh WSW 10.9 mph17.5 kmh 30.39 in1029.1 mb 0.00 in0.0 mm 0.00 in0.0 mm 0.00 in0.0 mm
01:10 PM 63.9°F17.7°C 37.8°F3.2°C 38% 4.5 mph WSW7.2 kmh WSW 13.2 mph21.2 kmh 30.39 in1029.1 mb 0.00 in0.0 mm 0.00 in0.0 mm 0.00 in0.0 mm
01:05 PM 63.8°F17.7°C 38.1°F3.4°C 39% 4.4 mph WSW7.1 kmh WSW 13.7 mph22.0 kmh 30.39 in1029.1 mb 0.00 in0.0 mm 0.00 in0.0 mm 0.00 in0.0 mm
01:00 PM 63.8°F17.7°C 37.7°F3.2°C 38% 5.1 mph WSW8.2 kmh WSW 10.7 mph17.2 kmh 30.40 in1029.5 mb 0.00 in0.0 mm 0.00 in0.0 mm 0.00 in0.0 mm
12:55 PM 63.9°F17.7°C 38.2°F3.4°C 39% 4.1 mph SW6.6 kmh SW 14.9 mph24.0 kmh 30.40 in1029.5 mb 0.00 in0.0 mm 0.00 in0.0 mm 0.00 in0.0 mm
12:50 PM 63.8°F17.7°C 38.5°F3.6°C 39% 3.6 mph WSW5.8 kmh WSW 12.0 mph19.3 kmh 30.40 in1029.5 mb 0.00 in0.0 mm 0.00 in0.0 mm 0.00 in0.0 mm
12:45 PM 63.6°F17.6°C 38.4°F3.6°C 39% 3.3 mph WSW5.3 kmh WSW 9.7 mph15.6 kmh 30.40 in1029.5 mb 0.00 in0.0 mm 0.00 in0.0 mm 0.00 in0.0 mm
12:40 PM 63.4°F17.4°C 38.3°F3.5°C 39% 2.3 mph S3.7 kmh S 7.0 mph11.3 kmh 30.40 in1029.5 mb 0.00 in0.0 mm 0.00 in0.0 mm 0.00 in0.0 mm
12:35 PM 62.9°F17.2°C 38.5°F3.6°C 40% 2.5 mph WSW4.0 kmh WSW 6.0 mph9.7 kmh 30.41 in1029.8 mb 0.00 in0.0 mm 0.00 in0.0 mm 0.00 in0.0 mm
12:30 PM 62.5°F16.9°C 38.9°F3.8°C 42% 2.3 mph NW3.7 kmh NW 5.8 mph9.3 kmh 30.41 in1029.8 mb 0.00 in0.0 mm 0.00 in0.0 mm 0.00 in0.0 mm
12:25 PM 62.2°F16.8°C 38.8°F3.8°C 42% 2.4 mph WSW3.9 kmh WSW 7.7 mph12.4 kmh 30.41 in1029.8 mb 0.00 in0.0 mm 0.00 in0.0 mm 0.00 in0.0 mm
12:20 PM 62.0°F16.7°C 39.0°F3.9°C 43% 1.7 mph WSW2.7 kmh WSW 5.7 mph9.2 kmh 30.41 in1029.8 mb 0.00 in0.0 mm 0.00 in0.0 mm 0.00 in0.0 mm
12:15 PM 61.7°F16.5°C 39.2°F4.0°C 43% 2.0 mph SW3.2 kmh SW 6.1 mph9.8 kmh 30.42 in1030.1 mb 0.00 in0.0 mm 0.00 in0.0 mm 0.00 in0.0 mm
12:10 PM 61.0°F16.1°C 39.0°F3.9°C 44% 2.0 mph SE3.2 kmh SE 5.2 mph8.4 kmh 30.42 in1030.1 mb 0.00 in0.0 mm 0.00 in0.0 mm 0.00 in0.0 mm
12:05 PM 60.4°F15.8°C 38.4°F3.6°C 44% 1.6 mph N2.6 kmh N 4.2 mph6.8 kmh 30.43 in1030.5 mb 0.00 in0.0 mm 0.00 in0.0 mm 0.00 in0.0 mm
12:00 PM 60.1°F15.6°C 38.3°F3.5°C 44% 1.9 mph E3.1 kmh E 4.6 mph7.4 kmh 30.43 in1030.5 mb 0.00 in0.0 mm 0.00 in0.0 mm 0.00 in0.0 mm
11:55 AM 59.8°F15.4°C 39.2°F4.0°C 46% 1.3 mph ESE2.1 kmh ESE 5.4 mph8.7 kmh 30.44 in1030.8 mb 0.00 in0.0 mm 0.00 in0.0 mm 0.00 in0.0 mm
11:50 AM 59.1°F15.1°C 38.7°F3.7°C 47% 1.3 mph SW2.1 kmh SW 5.2 mph8.4 kmh 30.44 in1030.8 mb 0.00 in0.0 mm 0.00 in0.0 mm 0.00 in0.0 mm
11:45 AM 58.8°F14.9°C 38.8°F3.8°C 47% 1.2 mph S1.9 kmh S 4.5 mph7.2 kmh 30.45 in1031.2 mb 0.00 in0.0 mm 0.00 in0.0 mm 0.00 in0.0 mm
11:40 AM 58.5°F14.7°C 38.8°F3.8°C 48% 1.1 mph SSE1.8 kmh SSE 2.4 mph3.9 kmh 30.45 in1031.2 mb 0.00 in0.0 mm 0.00 in0.0 mm 0.00 in0.0 mm
11:35 AM 58.1°F14.5°C 38.5°F3.6°C 48% 0.4 mph W0.6 kmh W 2.7 mph4.3 kmh 30.45 in1031.2 mb 0.00 in0.0 mm 0.00 in0.0 mm 0.00 in0.0 mm
11:30 AM 57.5°F14.2°C 39.0°F3.9°C 50% 1.1 mph SE1.8 kmh SE 3.3 mph5.3 kmh 30.46 in1031.5 mb 0.00 in0.0 mm 0.00 in0.0 mm 0.00 in0.0 mm
11:25 AM 56.8°F13.8°C 38.7°F3.7°C 51% 1.0 mph SE1.6 kmh SE 2.9 mph4.7 kmh 30.46 in1031.5 mb 0.00 in0.0 mm 0.00 in0.0 mm 0.00 in0.0 mm
11:20 AM 56.1°F13.4°C 38.0°F3.3°C 51% 1.0 mph SSE1.6 kmh SSE 3.1 mph5.0 kmh 30.47 in1031.8 mb 0.00 in0.0 mm 0.00 in0.0 mm 0.00 in0.0 mm
11:15 AM 55.9°F13.3°C 38.3°F3.5°C 52% 1.4 mph NW2.3 kmh NW 3.1 mph5.0 kmh 30.47 in1031.8 mb 0.00 in0.0 mm 0.00 in0.0 mm 0.00 in0.0 mm
11:10 AM 55.4°F13.0°C 38.1°F3.4°C 52% 1.3 mph SW2.1 kmh SW 4.8 mph7.7 kmh 30.47 in1031.8 mb 0.00 in0.0 mm 0.00 in0.0 mm 0.00 in0.0 mm
11:05 AM 55.0°F12.8°C 38.6°F3.7°C 54% 1.5 mph W2.4 kmh W 4.1 mph6.6 kmh 30.47 in1031.8 mb 0.00 in0.0 mm 0.00 in0.0 mm 0.00 in0.0 mm
11:00 AM 54.5°F12.5°C 38.5°F3.6°C 55% 1.8 mph W2.9 kmh W 5.3 mph8.5 kmh 30.48 in1032.2 mb 0.00 in0.0 mm 0.00 in0.0 mm 0.00 in0.0 mm
10:55 AM 54.1°F12.3°C 38.3°F3.5°C 55% 1.8 mph W2.9 kmh W 4.3 mph6.9 kmh 30.48 in1032.2 mb 0.00 in0.0 mm 0.00 in0.0 mm 0.00 in0.0 mm
10:50 AM 53.6°F12.0°C 38.3°F3.5°C 56% 1.7 mph W2.7 kmh W 4.0 mph6.4 kmh 30.48 in1032.2 mb 0.00 in0.0 mm 0.00 in0.0 mm 0.00 in0.0 mm
10:45 AM 53.0°F11.7°C 37.7°F3.2°C 56% 1.3 mph WSW2.1 kmh WSW 3.1 mph5.0 kmh 30.48 in1032.2 mb 0.00 in0.0 mm 0.00 in0.0 mm 0.00 in0.0 mm
10:40 AM 52.4°F11.3°C 37.5°F3.1°C 57% 1.8 mph NW2.9 kmh NW 3.6 mph5.8 kmh 30.49 in1032.5 mb 0.00 in0.0 mm 0.00 in0.0 mm 0.00 in0.0 mm
10:35 AM 51.9°F11.1°C 37.9°F3.3°C 59% 0.6 mph W1.0 kmh W 2.6 mph4.2 kmh 30.49 in1032.5 mb 0.00 in0.0 mm 0.00 in0.0 mm 0.00 in0.0 mm
10:30 AM 51.2°F10.7°C 37.3°F2.9°C 59% 0.3 mph SSE0.5 kmh SSE 1.8 mph2.9 kmh 30.49 in1032.5 mb 0.00 in0.0 mm 0.00 in0.0 mm 0.00 in0.0 mm
10:25 AM 50.8°F10.4°C 37.0°F2.8°C 59% 0.3 mph NW0.5 kmh NW 2.3 mph3.7 kmh 30.50 in1032.8 mb 0.00 in0.0 mm 0.00 in0.0 mm 0.00 in0.0 mm
10:20 AM 50.5°F10.3°C 36.7°F2.6°C 59% 0.8 mph NNW1.3 kmh NNW 2.1 mph3.4 kmh 30.50 in1032.8 mb 0.00 in0.0 mm 0.00 in0.0 mm 0.00 in0.0 mm
10:15 AM 50.3°F10.2°C 37.1°F2.8°C 60% 0.3 mph NW0.5 kmh NW 2.1 mph3.4 kmh 30.50 in1032.8 mb 0.00 in0.0 mm 0.00 in0.0 mm 0.00 in0.0 mm
10:10 AM 49.9°F9.9°C 37.7°F3.2°C 63% 0.5 mph SE0.8 kmh SE 2.0 mph3.2 kmh 30.50 in1032.8 mb 0.00 in0.0 mm 0.00 in0.0 mm 0.00 in0.0 mm
10:05 AM 49.5°F9.7°C 37.7°F3.2°C 64% 0.2 mph SE0.3 kmh SE 1.5 mph2.4 kmh 30.50 in1032.8 mb 0.00 in0.0 mm 0.00 in0.0 mm 0.00 in0.0 mm
10:00 AM 48.8°F9.3°C 37.2°F2.9°C 64% 0.3 mph SE0.5 kmh SE 1.8 mph2.9 kmh 30.51 in1033.2 mb 0.00 in0.0 mm 0.00 in0.0 mm 0.00 in0.0 mm
09:55 AM 48.0°F8.9°C 36.8°F2.7°C 65% 0.5 mph E0.8 kmh E 1.6 mph2.6 kmh 30.51 in1033.2 mb 0.00 in0.0 mm 0.00 in0.0 mm 0.00 in0.0 mm
09:50 AM 47.3°F8.5°C 36.2°F2.3°C 65% 0.1 mph NE0.2 kmh NE 1.0 mph1.6 kmh 30.51 in1033.2 mb 0.00 in0.0 mm 0.00 in0.0 mm 0.00 in0.0 mm
09:45 AM 46.8°F8.2°C 35.7°F2.1°C 65% 0.1 mph ENE0.2 kmh ENE 1.6 mph2.6 kmh 30.52 in1033.5 mb 0.00 in0.0 mm 0.00 in0.0 mm 0.00 in0.0 mm
09:40 AM 46.3°F7.9°C 35.2°F1.8°C 65% 0.1 mph ENE0.2 kmh ENE 1.9 mph3.1 kmh 30.52 in1033.5 mb 0.00 in0.0 mm 0.00 in0.0 mm 0.00 in0.0 mm
09:35 AM 45.8°F7.7°C 34.7°F1.5°C 65% 0.2 mph E0.3 kmh E 1.9 mph3.1 kmh 30.52 in1033.5 mb 0.00 in0.0 mm 0.00 in0.0 mm 0.00 in0.0 mm
09:30 AM 45.3°F7.4°C 34.2°F1.2°C 65% 0.8 mph NE1.3 kmh NE 1.8 mph2.9 kmh 30.52 in1033.5 mb 0.00 in0.0 mm 0.00 in0.0 mm 0.00 in0.0 mm
09:25 AM 44.9°F7.2°C 33.8°F1.0°C 65% 0.1 mph NE0.2 kmh NE 1.5 mph2.4 kmh 30.52 in1033.5 mb 0.00 in0.0 mm 0.00 in0.0 mm 0.00 in0.0 mm
09:20 AM 44.7°F7.1°C 33.6°F0.9°C 65% 0.3 mph NE0.5 kmh NE 1.7 mph2.7 kmh 30.52 in1033.5 mb 0.00 in0.0 mm 0.00 in0.0 mm 0.00 in0.0 mm
09:15 AM 44.7°F7.1°C 33.6°F0.9°C 65% 0.6 mph NE1.0 kmh NE 2.2 mph3.5 kmh 30.52 in1033.5 mb 0.00 in0.0 mm 0.00 in0.0 mm 0.00 in0.0 mm
09:10 AM 44.6°F7.0°C 33.6°F0.9°C 65% 0.2 mph NE0.3 kmh NE 1.9 mph3.1 kmh 30.52 in1033.5 mb 0.00 in0.0 mm 0.00 in0.0 mm 0.00 in0.0 mm
09:05 AM 44.5°F6.9°C 33.5°F0.8°C 65% 0.4 mph ENE0.6 kmh ENE 2.8 mph4.5 kmh 30.52 in1033.5 mb 0.00 in0.0 mm 0.00 in0.0 mm 0.00 in0.0 mm
09:00 AM 44.4°F6.9°C 33.4°F0.8°C 65% 0.2 mph NE0.3 kmh NE 2.0 mph3.2 kmh 30.52 in1033.5 mb 0.00 in0.0 mm 0.00 in0.0 mm 0.00 in0.0 mm
08:55 AM 44.3°F6.8°C 33.3°F0.7°C 65% 0.5 mph ENE0.8 kmh ENE 2.5 mph4.0 kmh 30.51 in1033.2 mb 0.00 in0.0 mm 0.00 in0.0 mm 0.00 in0.0 mm
08:50 AM 44.1°F6.7°C 33.1°F0.6°C 65% 0.3 mph NE0.5 kmh NE 2.3 mph3.7 kmh 30.52 in1033.5 mb 0.00 in0.0 mm 0.00 in0.0 mm 0.00 in0.0 mm
08:45 AM 44.1°F6.7°C 33.1°F0.6°C 65% 0.1 mph ENE0.2 kmh ENE 1.7 mph2.7 kmh 30.52 in1033.5 mb 0.00 in0.0 mm 0.00 in0.0 mm 0.00 in0.0 mm
08:40 AM 43.9°F6.6°C 32.9°F0.5°C 65% 1.3 mph NE2.1 kmh NE 3.0 mph4.8 kmh 30.51 in1033.2 mb 0.00 in0.0 mm 0.00 in0.0 mm 0.00 in0.0 mm
08:35 AM 43.7°F6.5°C 32.7°F0.4°C 65% 0.5 mph E0.8 kmh E 2.6 mph4.2 kmh 30.51 in1033.2 mb 0.00 in0.0 mm 0.00 in0.0 mm 0.00 in0.0 mm
08:30 AM 43.7°F6.5°C 32.7°F0.4°C 65% 0.4 mph ENE0.6 kmh ENE 2.6 mph4.2 kmh 30.51 in1033.2 mb 0.00 in0.0 mm 0.00 in0.0 mm 0.00 in0.0 mm
08:25 AM 43.7°F6.5°C 32.7°F0.4°C 65% 0.1 mph NE0.2 kmh NE 1.6 mph2.6 kmh 30.51 in1033.2 mb 0.00 in0.0 mm 0.00 in0.0 mm 0.00 in0.0 mm
08:20 AM 43.6°F6.4°C 32.6°F0.3°C 65% 0.3 mph NE0.5 kmh NE 1.6 mph2.6 kmh 30.51 in1033.2 mb 0.00 in0.0 mm 0.00 in0.0 mm 0.00 in0.0 mm
08:15 AM 43.5°F6.4°C 32.5°F0.3°C 65% 0.8 mph NE1.3 kmh NE 2.4 mph3.9 kmh 30.51 in1033.2 mb 0.00 in0.0 mm 0.00 in0.0 mm 0.00 in0.0 mm
08:10 AM 43.3°F6.3°C 32.3°F0.2°C 65% 0.6 mph ENE1.0 kmh ENE 2.9 mph4.7 kmh 30.51 in1033.2 mb 0.00 in0.0 mm 0.00 in0.0 mm 0.00 in0.0 mm
08:05 AM 43.3°F6.3°C 32.3°F0.2°C 65% 0.6 mph NE1.0 kmh NE 2.8 mph4.5 kmh 30.50 in1032.8 mb 0.00 in0.0 mm 0.00 in0.0 mm 0.00 in0.0 mm
08:00 AM 43.3°F6.3°C 32.3°F0.2°C 65% 1.1 mph NE1.8 kmh NE 2.7 mph4.3 kmh 30.50 in1032.8 mb 0.00 in0.0 mm 0.00 in0.0 mm 0.00 in0.0 mm
07:55 AM 43.3°F6.3°C 32.4°F0.2°C 65% 0.7 mph NE1.1 kmh NE 2.3 mph3.7 kmh 30.50 in1032.8 mb 0.00 in0.0 mm 0.00 in0.0 mm 0.00 in0.0 mm
07:50 AM 43.5°F6.4°C 32.5°F0.3°C 65% 0.4 mph NE0.6 kmh NE 1.8 mph2.9 kmh 30.50 in1032.8 mb 0.00 in0.0 mm 0.00 in0.0 mm 0.00 in0.0 mm
07:45 AM 43.6°F6.4°C 32.6°F0.3°C 65% 0.2 mph NE0.3 kmh NE 1.9 mph3.1 kmh 30.50 in1032.8 mb 0.00 in0.0 mm 0.00 in0.0 mm 0.00 in0.0 mm
07:40 AM 43.6°F6.4°C 32.6°F0.3°C 65% 0.5 mph ENE0.8 kmh ENE 3.3 mph5.3 kmh 30.50 in1032.8 mb 0.00 in0.0 mm 0.00 in0.0 mm 0.00 in0.0 mm
07:35 AM 43.6°F6.4°C 32.6°F0.3°C 65% 0.3 mph ENE0.5 kmh ENE 1.9 mph3.1 kmh 30.50 in1032.8 mb 0.00 in0.0 mm 0.00 in0.0 mm 0.00 in0.0 mm
07:30 AM 43.7°F6.5°C 32.6°F0.3°C 65% 0.4 mph ENE0.6 kmh ENE 2.3 mph3.7 kmh 30.49 in1032.5 mb 0.00 in0.0 mm 0.00 in0.0 mm 0.00 in0.0 mm
07:25 AM 43.8°F6.6°C 32.4°F0.2°C 64% 0.4 mph ENE0.6 kmh ENE 2.2 mph3.5 kmh 30.49 in1032.5 mb 0.00 in0.0 mm 0.00 in0.0 mm 0.00 in0.0 mm
07:20 AM 43.9°F6.6°C 32.5°F0.3°C 64% 0.1 mph E0.2 kmh E 1.2 mph1.9 kmh 30.49 in1032.5 mb 0.00 in0.0 mm 0.00 in0.0 mm 0.00 in0.0 mm
07:15 AM 44.0°F6.7°C 32.6°F0.3°C 64% 0.8 mph NE1.3 kmh NE 2.1 mph3.4 kmh 30.49 in1032.5 mb 0.00 in0.0 mm 0.00 in0.0 mm 0.00 in0.0 mm
07:10 AM 44.0°F6.7°C 32.6°F0.3°C 64% 0.9 mph ENE1.4 kmh ENE 2.2 mph3.5 kmh 30.49 in1032.5 mb 0.00 in0.0 mm 0.00 in0.0 mm 0.00 in0.0 mm
07:05 AM 44.1°F6.7°C 32.8°F0.4°C 64% 0.2 mph E0.3 kmh E 2.3 mph3.7 kmh 30.49 in1032.5 mb 0.00 in0.0 mm 0.00 in0.0 mm 0.00 in0.0 mm
07:00 AM 44.4°F6.9°C 32.9°F0.5°C 64% 0.2 mph NE0.3 kmh NE 2.3 mph3.7 kmh 30.49 in1032.5 mb 0.00 in0.0 mm 0.00 in0.0 mm 0.00 in0.0 mm
06:55 AM 44.5°F6.9°C 32.8°F0.4°C 63% 0.4 mph NE0.6 kmh NE 2.5 mph4.0 kmh 30.48 in1032.2 mb 0.00 in0.0 mm 0.00 in0.0 mm 0.00 in0.0 mm
06:50 AM 44.4°F6.9°C 33.0°F0.6°C 64% 1.1 mph ENE1.8 kmh ENE 2.8 mph4.5 kmh 30.48 in1032.2 mb 0.00 in0.0 mm 0.00 in0.0 mm 0.00 in0.0 mm
06:45 AM 44.4°F6.9°C 32.9°F0.5°C 64% 0.7 mph NE1.1 kmh NE 2.8 mph4.5 kmh 30.48 in1032.2 mb 0.00 in0.0 mm 0.00 in0.0 mm 0.00 in0.0 mm
06:40 AM 44.5°F6.9°C 32.7°F0.4°C 63% 1.2 mph NE1.9 kmh NE 2.8 mph4.5 kmh 30.48 in1032.2 mb 0.00 in0.0 mm 0.00 in0.0 mm 0.00 in0.0 mm
06:35 AM 44.8°F7.1°C 33.0°F0.6°C 63% 0.8 mph ENE1.3 kmh ENE 2.7 mph4.3 kmh 30.48 in1032.2 mb 0.00 in0.0 mm 0.00 in0.0 mm 0.00 in0.0 mm
06:30 AM 45.0°F7.2°C 32.8°F0.4°C 62% 0.3 mph NE0.5 kmh NE 2.2 mph3.5 kmh 30.48 in1032.2 mb 0.00 in0.0 mm 0.00 in0.0 mm 0.00 in0.0 mm
06:25 AM 45.0°F7.2°C 32.8°F0.4°C 62% 0.3 mph ENE0.5 kmh ENE 1.9 mph3.1 kmh 30.48 in1032.2 mb 0.00 in0.0 mm 0.00 in0.0 mm 0.00 in0.0 mm
06:20 AM 45.1°F7.3°C 32.9°F0.5°C 62% 0.9 mph E1.4 kmh E 3.4 mph5.5 kmh 30.48 in1032.2 mb 0.00 in0.0 mm 0.00 in0.0 mm 0.00 in0.0 mm
06:15 AM 45.3°F7.4°C 33.0°F0.6°C 62% 0.2 mph E0.3 kmh E 1.9 mph3.1 kmh 30.48 in1032.2 mb 0.00 in0.0 mm 0.00 in0.0 mm 0.00 in0.0 mm
06:10 AM 45.4°F7.4°C 33.2°F0.7°C 62% 1.5 mph NE2.4 kmh NE 3.5 mph5.6 kmh 30.47 in1031.8 mb 0.00 in0.0 mm 0.00 in0.0 mm 0.00 in0.0 mm
06:05 AM 45.5°F7.5°C 33.1°F0.6°C 62% 0.3 mph NE0.5 kmh NE 2.1 mph3.4 kmh 30.47 in1031.8 mb 0.00 in0.0 mm 0.00 in0.0 mm 0.00 in0.0 mm
06:00 AM 45.5°F7.5°C 32.5°F0.3°C 60% 1.2 mph N1.9 kmh N 2.8 mph4.5 kmh 30.47 in1031.8 mb 0.00 in0.0 mm 0.00 in0.0 mm 0.00 in0.0 mm
05:55 AM 45.4°F7.4°C 32.4°F0.2°C 60% 1.1 mph NNE1.8 kmh NNE 3.1 mph5.0 kmh 30.47 in1031.8 mb 0.00 in0.0 mm 0.00 in0.0 mm 0.00 in0.0 mm
05:50 AM 45.4°F7.4°C 32.5°F0.3°C 60% 1.1 mph NE1.8 kmh NE 2.9 mph4.7 kmh 30.47 in1031.8 mb 0.00 in0.0 mm 0.00 in0.0 mm 0.00 in0.0 mm
05:45 AM 45.3°F7.4°C 33.1°F0.6°C 62% 0.9 mph ENE1.4 kmh ENE 3.9 mph6.3 kmh 30.47 in1031.8 mb 0.00 in0.0 mm 0.00 in0.0 mm 0.00 in0.0 mm
05:40 AM 45.1°F7.3°C 32.9°F0.5°C 62% 0.7 mph ENE1.1 kmh ENE 2.8 mph4.5 kmh 30.47 in1031.8 mb 0.00 in0.0 mm 0.00 in0.0 mm 0.00 in0.0 mm
05:35 AM 44.9°F7.2°C 32.7°F0.4°C 62% 0.3 mph E0.5 kmh E 2.5 mph4.0 kmh 30.47 in1031.8 mb 0.00 in0.0 mm 0.00 in0.0 mm 0.00 in0.0 mm
05:30 AM 44.8°F7.1°C 33.0°F0.6°C 63% 1.0 mph NE1.6 kmh NE 2.9 mph4.7 kmh 30.47 in1031.8 mb 0.00 in0.0 mm 0.00 in0.0 mm 0.00 in0.0 mm
05:25 AM 44.9°F7.2°C 32.9°F0.5°C 62% 1.1 mph NE1.8 kmh NE 2.6 mph4.2 kmh 30.47 in1031.8 mb 0.00 in0.0 mm 0.00 in0.0 mm 0.00 in0.0 mm
05:20 AM 45.1°F7.3°C 32.8°F0.4°C 62% 0.5 mph ENE0.8 kmh ENE 1.8 mph2.9 kmh 30.46 in1031.5 mb 0.00 in0.0 mm 0.00 in0.0 mm 0.00 in0.0 mm
05:15 AM 45.2°F7.3°C 32.7°F0.4°C 61% 0.9 mph ENE1.4 kmh ENE 2.3 mph3.7 kmh 30.46 in1031.5 mb 0.00 in0.0 mm 0.00 in0.0 mm 0.00 in0.0 mm
05:10 AM 45.5°F7.5°C 32.4°F0.2°C 60% 0.3 mph ENE0.5 kmh ENE 2.4 mph3.9 kmh 30.46 in1031.5 mb 0.00 in0.0 mm 0.00 in0.0 mm 0.00 in0.0 mm
05:05 AM 45.6°F7.6°C 32.6°F0.3°C 60% Calm Calm 1.7 mph2.7 kmh 30.46 in1031.5 mb 0.00 in0.0 mm 0.00 in0.0 mm 0.00 in0.0 mm
05:00 AM 45.9°F7.7°C 32.8°F0.4°C 60% Calm Calm 1.4 mph2.3 kmh 30.46 in1031.5 mb 0.00 in0.0 mm 0.00 in0.0 mm 0.00 in0.0 mm
04:55 AM 46.2°F7.9°C 33.1°F0.6°C 60% 0.5 mph ENE0.8 kmh ENE 2.4 mph3.9 kmh 30.46 in1031.5 mb 0.00 in0.0 mm 0.00 in0.0 mm 0.00 in0.0 mm
04:50 AM 46.3°F7.9°C 33.1°F0.6°C 60% 0.9 mph ENE1.4 kmh ENE 2.1 mph3.4 kmh 30.46 in1031.5 mb 0.00 in0.0 mm 0.00 in0.0 mm 0.00 in0.0 mm
04:45 AM 46.2°F7.9°C 33.1°F0.6°C 60% 0.3 mph E0.5 kmh E 2.0 mph3.2 kmh 30.46 in1031.5 mb 0.00 in0.0 mm 0.00 in0.0 mm 0.00 in0.0 mm
04:40 AM 46.2°F7.9°C 33.0°F0.6°C 60% 0.9 mph ENE1.4 kmh ENE 2.5 mph4.0 kmh 30.46 in1031.5 mb 0.00 in0.0 mm 0.00 in0.0 mm 0.00 in0.0 mm
04:35 AM 46.1°F7.8°C 33.0°F0.6°C 60% 0.9 mph ENE1.4 kmh ENE 3.6 mph5.8 kmh 30.46 in1031.5 mb 0.00 in0.0 mm 0.00 in0.0 mm 0.00 in0.0 mm
04:30 AM 46.0°F7.8°C 32.9°F0.5°C 60% 0.6 mph ENE1.0 kmh ENE 2.1 mph3.4 kmh 30.46 in1031.5 mb 0.00 in0.0 mm 0.00 in0.0 mm 0.00 in0.0 mm
04:25 AM 46.0°F7.8°C 32.9°F0.5°C 60% 0.7 mph ENE1.1 kmh ENE 2.8 mph4.5 kmh 30.46 in1031.5 mb 0.00 in0.0 mm 0.00 in0.0 mm 0.00 in0.0 mm
04:20 AM 46.0°F7.8°C 32.9°F0.5°C 60% 0.8 mph NE1.3 kmh NE 2.7 mph4.3 kmh 30.46 in1031.5 mb 0.00 in0.0 mm 0.00 in0.0 mm 0.00 in0.0 mm
04:15 AM 45.8°F7.7°C 33.4°F0.8°C 62% 0.6 mph E1.0 kmh E 2.5 mph4.0 kmh 30.47 in1031.8 mb 0.00 in0.0 mm 0.00 in0.0 mm 0.00 in0.0 mm
04:10 AM 45.6°F7.6°C 33.3°F0.7°C 62% 0.7 mph ENE1.1 kmh ENE 3.1 mph5.0 kmh 30.47 in1031.8 mb 0.00 in0.0 mm 0.00 in0.0 mm 0.00 in0.0 mm
04:05 AM 45.4°F7.4°C 33.2°F0.7°C 62% 0.5 mph E0.8 kmh E 3.2 mph5.1 kmh 30.47 in1031.8 mb 0.00 in0.0 mm 0.00 in0.0 mm 0.00 in0.0 mm
04:00 AM 45.4°F7.4°C 33.1°F0.6°C 62% 0.1 mph E0.2 kmh E 1.6 mph2.6 kmh 30.47 in1031.8 mb 0.00 in0.0 mm 0.00 in0.0 mm 0.00 in0.0 mm
03:55 AM 45.3°F7.4°C 33.3°F0.7°C 63% 1.3 mph NE2.1 kmh NE 3.4 mph5.5 kmh 30.47 in1031.8 mb 0.00 in0.0 mm 0.00 in0.0 mm 0.00 in0.0 mm
03:50 AM 45.1°F7.3°C 33.3°F0.7°C 63% 1.5 mph NE2.4 kmh NE 3.1 mph5.0 kmh 30.48 in1032.2 mb 0.00 in0.0 mm 0.00 in0.0 mm 0.00 in0.0 mm
03:45 AM 45.2°F7.3°C 33.2°F0.7°C 63% 0.3 mph ENE0.5 kmh ENE 2.2 mph3.5 kmh 30.48 in1032.2 mb 0.00 in0.0 mm 0.00 in0.0 mm 0.00 in0.0 mm
03:40 AM 45.2°F7.3°C 33.0°F0.6°C 62% 0.1 mph E0.2 kmh E 1.7 mph2.7 kmh 30.48 in1032.2 mb 0.00 in0.0 mm 0.00 in0.0 mm 0.00 in0.0 mm
03:35 AM 45.2°F7.3°C 33.0°F0.6°C 62% 0.3 mph ENE0.5 kmh ENE 2.1 mph3.4 kmh 30.48 in1032.2 mb 0.00 in0.0 mm 0.00 in0.0 mm 0.00 in0.0 mm
03:30 AM 45.3°F7.4°C 33.1°F0.6°C 62% 0.2 mph ENE0.3 kmh ENE 3.2 mph5.1 kmh 30.48 in1032.2 mb 0.00 in0.0 mm 0.00 in0.0 mm 0.00 in0.0 mm
03:25 AM 45.4°F7.4°C 33.2°F0.7°C 62% 0.2 mph ENE0.3 kmh ENE 1.8 mph2.9 kmh 30.48 in1032.2 mb 0.00 in0.0 mm 0.00 in0.0 mm 0.00 in0.0 mm
03:20 AM 45.5°F7.5°C 33.2°F0.7°C 62% Calm Calm 1.6 mph2.6 kmh 30.48 in1032.2 mb 0.00 in0.0 mm 0.00 in0.0 mm 0.00 in0.0 mm
03:15 AM 45.5°F7.5°C 32.5°F0.3°C 60% 0.2 mph ENE0.3 kmh ENE 2.2 mph3.5 kmh 30.48 in1032.2 mb 0.00 in0.0 mm 0.00 in0.0 mm 0.00 in0.0 mm
03:10 AM 45.7°F7.6°C 32.6°F0.3°C 60% 0.3 mph NE0.5 kmh NE 1.9 mph3.1 kmh 30.48 in1032.2 mb 0.00 in0.0 mm 0.00 in0.0 mm 0.00 in0.0 mm
03:05 AM 45.8°F7.7°C 32.7°F0.4°C 60% 0.4 mph ENE0.6 kmh ENE 2.3 mph3.7 kmh 30.48 in1032.2 mb 0.00 in0.0 mm 0.00 in0.0 mm 0.00 in0.0 mm
03:00 AM 46.0°F7.8°C 32.9°F0.5°C 60% Calm Calm 1.5 mph2.4 kmh 30.48 in1032.2 mb 0.00 in0.0 mm 0.00 in0.0 mm 0.00 in0.0 mm
02:55 AM 46.1°F7.8°C 33.0°F0.6°C 60% 1.1 mph NE1.8 kmh NE 2.7 mph4.3 kmh 30.48 in1032.2 mb 0.00 in0.0 mm 0.00 in0.0 mm 0.00 in0.0 mm
02:50 AM 46.2°F7.9°C 33.1°F0.6°C 60% 0.5 mph NE0.8 kmh NE 3.0 mph4.8 kmh 30.48 in1032.2 mb 0.00 in0.0 mm 0.00 in0.0 mm 0.00 in0.0 mm
02:45 AM 46.3°F7.9°C 33.2°F0.7°C 60% 0.4 mph ENE0.6 kmh ENE 2.8 mph4.5 kmh 30.48 in1032.2 mb 0.00 in0.0 mm 0.00 in0.0 mm 0.00 in0.0 mm
02:40 AM 46.4°F8.0°C 33.3°F0.7°C 60% 0.9 mph NE1.4 kmh NE 2.6 mph4.2 kmh 30.48 in1032.2 mb 0.00 in0.0 mm 0.00 in0.0 mm 0.00 in0.0 mm
02:35 AM 46.4°F8.0°C 33.3°F0.7°C 60% 0.3 mph E0.5 kmh E 1.8 mph2.9 kmh 30.48 in1032.2 mb 0.00 in0.0 mm 0.00 in0.0 mm 0.00 in0.0 mm
02:30 AM 46.5°F8.1°C 33.4°F0.8°C 60% 0.1 mph ENE0.2 kmh ENE 1.7 mph2.7 kmh 30.48 in1032.2 mb 0.00 in0.0 mm 0.00 in0.0 mm 0.00 in0.0 mm
02:25 AM 46.6°F8.1°C 33.5°F0.8°C 60% 0.1 mph ENE0.2 kmh ENE 2.0 mph3.2 kmh 30.48 in1032.2 mb 0.00 in0.0 mm 0.00 in0.0 mm 0.00 in0.0 mm
02:20 AM 46.6°F8.1°C 33.5°F0.8°C 60% 0.2 mph ENE0.3 kmh ENE 2.4 mph3.9 kmh 30.49 in1032.5 mb 0.00 in0.0 mm 0.00 in0.0 mm 0.00 in0.0 mm
02:15 AM 46.4°F8.0°C 33.3°F0.7°C 60% 1.0 mph ENE1.6 kmh ENE 2.7 mph4.3 kmh 30.49 in1032.5 mb 0.00 in0.0 mm 0.00 in0.0 mm 0.00 in0.0 mm
02:10 AM 46.3°F7.9°C 33.2°F0.7°C 60% 0.5 mph ENE0.8 kmh ENE 1.8 mph2.9 kmh 30.49 in1032.5 mb 0.00 in0.0 mm 0.00 in0.0 mm 0.00 in0.0 mm
02:05 AM 46.4°F8.0°C 33.3°F0.7°C 60% 0.4 mph ENE0.6 kmh ENE 2.2 mph3.5 kmh 30.49 in1032.5 mb 0.00 in0.0 mm 0.00 in0.0 mm 0.00 in0.0 mm
02:00 AM 46.6°F8.1°C 33.2°F0.7°C 59% 0.3 mph NE0.5 kmh NE 1.7 mph2.7 kmh 30.49 in1032.5 mb 0.00 in0.0 mm 0.00 in0.0 mm 0.00 in0.0 mm
01:55 AM 46.7°F8.2°C 33.1°F0.6°C 59% 0.1 mph ENE0.2 kmh ENE 2.1 mph3.4 kmh 30.48 in1032.2 mb 0.00 in0.0 mm 0.00 in0.0 mm 0.00 in0.0 mm
01:50 AM 46.8°F8.2°C 33.2°F0.7°C 59% 1.1 mph NE1.8 kmh NE 2.5 mph4.0 kmh 30.48 in1032.2 mb 0.00 in0.0 mm 0.00 in0.0 mm 0.00 in0.0 mm
01:45 AM 47.0°F8.3°C 33.4°F0.8°C 59% 0.6 mph ENE1.0 kmh ENE 2.2 mph3.5 kmh 30.48 in1032.2 mb 0.00 in0.0 mm 0.00 in0.0 mm 0.00 in0.0 mm
01:40 AM 47.1°F8.4°C 33.5°F0.8°C 59% 0.5 mph ENE0.8 kmh ENE 1.7 mph2.7 kmh 30.48 in1032.2 mb 0.00 in0.0 mm 0.00 in0.0 mm 0.00 in0.0 mm
01:35 AM 47.1°F8.4°C 33.1°F0.6°C 58% 0.6 mph NE1.0 kmh NE 2.3 mph3.7 kmh 30.48 in1032.2 mb 0.00 in0.0 mm 0.00 in0.0 mm 0.00 in0.0 mm
01:30 AM 47.2°F8.4°C 33.2°F0.7°C 58% 0.7 mph ENE1.1 kmh ENE 2.7 mph4.3 kmh 30.48 in1032.2 mb 0.00 in0.0 mm 0.00 in0.0 mm 0.00 in0.0 mm
01:25 AM 47.3°F8.5°C 33.3°F0.7°C 58% 0.2 mph E0.3 kmh E 2.1 mph3.4 kmh 30.48 in1032.2 mb 0.00 in0.0 mm 0.00 in0.0 mm 0.00 in0.0 mm
01:20 AM 47.4°F8.6°C 33.2°F0.7°C 58% 0.2 mph ENE0.3 kmh ENE 2.4 mph3.9 kmh 30.48 in1032.2 mb 0.00 in0.0 mm 0.00 in0.0 mm 0.00 in0.0 mm
01:15 AM 47.5°F8.6°C 32.6°F0.3°C 56% 0.7 mph ENE1.1 kmh ENE 3.5 mph5.6 kmh 30.48 in1032.2 mb 0.00 in0.0 mm 0.00 in0.0 mm 0.00 in0.0 mm
01:10 AM 47.6°F8.7°C 32.7°F0.4°C 56% 0.2 mph E0.3 kmh E 2.3 mph3.7 kmh 30.48 in1032.2 mb 0.00 in0.0 mm 0.00 in0.0 mm 0.00 in0.0 mm
01:05 AM 47.7°F8.7°C 32.8°F0.4°C 56% 0.4 mph ENE0.6 kmh ENE 2.5 mph4.0 kmh 30.47 in1031.8 mb 0.00 in0.0 mm 0.00 in0.0 mm 0.00 in0.0 mm
01:00 AM 47.9°F8.8°C 33.0°F0.6°C 56% 0.2 mph ENE0.3 kmh ENE 1.5 mph2.4 kmh 30.47 in1031.8 mb 0.00 in0.0 mm 0.00 in0.0 mm 0.00 in0.0 mm
12:55 AM 48.1°F8.9°C 33.1°F0.6°C 56% 1.0 mph ENE1.6 kmh ENE 2.0 mph3.2 kmh 30.47 in1031.8 mb 0.00 in0.0 mm 0.00 in0.0 mm 0.00 in0.0 mm
12:50 AM 48.2°F9.0°C 33.3°F0.7°C 56% 1.1 mph ENE1.8 kmh ENE 2.4 mph3.9 kmh 30.47 in1031.8 mb 0.00 in0.0 mm 0.00 in0.0 mm 0.00 in0.0 mm
12:45 AM 48.3°F9.1°C 32.9°F0.5°C 55% 0.9 mph NE1.4 kmh NE 2.0 mph3.2 kmh 30.47 in1031.8 mb 0.00 in0.0 mm 0.00 in0.0 mm 0.00 in0.0 mm
12:40 AM 48.3°F9.1°C 33.2°F0.7°C 56% 1.2 mph NE1.9 kmh NE 2.4 mph3.9 kmh 30.47 in1031.8 mb 0.00 in0.0 mm 0.00 in0.0 mm 0.00 in0.0 mm
12:35 AM 48.3°F9.1°C 33.6°F0.9°C 57% 0.7 mph NE1.1 kmh NE 2.6 mph4.2 kmh 30.47 in1031.8 mb 0.00 in0.0 mm 0.00 in0.0 mm 0.00 in0.0 mm
12:30 AM 48.4°F9.1°C 33.7°F0.9°C 57% 0.3 mph ENE0.5 kmh ENE 2.3 mph3.7 kmh 30.47 in1031.8 mb 0.00 in0.0 mm 0.00 in0.0 mm 0.00 in0.0 mm
12:25 AM 48.4°F9.1°C 33.8°F1.0°C 57% 0.6 mph ENE1.0 kmh ENE 3.3 mph5.3 kmh 30.47 in1031.8 mb 0.00 in0.0 mm 0.00 in0.0 mm 0.00 in0.0 mm
12:20 AM 48.5°F9.2°C 33.5°F0.8°C 56% 0.3 mph ENE0.5 kmh ENE 2.7 mph4.3 kmh 30.47 in1031.8 mb 0.00 in0.0 mm 0.00 in0.0 mm 0.00 in0.0 mm
12:15 AM 48.4°F9.1°C 33.4°F0.8°C 56% 0.9 mph ENE1.4 kmh ENE 2.9 mph4.7 kmh 30.47 in1031.8 mb 0.00 in0.0 mm 0.00 in0.0 mm 0.00 in0.0 mm
12:10 AM 48.3°F9.1°C 33.4°F0.8°C 56% 0.6 mph E1.0 kmh E 3.2 mph5.1 kmh 30.47 in1031.8 mb 0.00 in0.0 mm 0.00 in0.0 mm 0.00 in0.0 mm
12:05 AM 48.6°F9.2°C 33.6°F0.9°C 56% Calm Calm 1.5 mph2.4 kmh 30.47 in1031.8 mb 0.00 in0.0 mm 0.00 in0.0 mm 0.00 in0.0 mm
12:00 AM 48.7°F9.3°C 33.3°F0.7°C 55% 0.8 mph ENE1.3 kmh ENE 2.0 mph3.2 kmh 30.47 in1031.8 mb 0.00 in0.0 mm 0.00 in0.0 mm 0.00 in0.0 mm